Data for 09/03/2013

Time Sea-Level Adjusted Pressure Absolute Pressure Temperature Relative Humidity Dew Point   
(mb) (inHg) (mb) (inHg) (C) (F) (%) (C) (F)
00:05 1020 30.12 849 25.07 16.5 61.7 59 8.6 47.5
00:10 1020 30.12 849 25.07 16.4 61.5 59 8.4 47.1
00:15 1020 30.12 849 25.07 16.5 61.7 59 8.7 47.6
00:20 1020 30.12 849 25.07 16.5 61.8 60 8.8 47.8
00:25 1020 30.12 849 25.07 16.6 61.8 58 8.4 47.1
00:30 1020 30.12 850 25.1 16 60.8 61 8.5 47.4
00:35 1020 30.12 850 25.1 15.5 59.9 61 8 46.4
00:40 1020 30.12 850 25.1 15.5 60 59 7.6 45.8
00:45 1020 30.12 850 25.1 15.8 60.4 60 8.1 46.5
00:50 1021 30.15 850 25.1 15.5 59.9 61 8 46.4
00:55 1021 30.15 850 25.1 15.4 59.7 64 8.7 47.6
01:00 1021 30.15 850 25.1 15.5 59.8 59 7.5 45.5
01:05 1021 30.15 850 25.1 15.4 59.6 58 7.2 45
01:10 1021 30.15 850 25.1 15.4 59.7 58 7.1 44.8
01:15 1021 30.15 850 25.1 15.8 60.5 56 7.2 44.9
01:20 1021 30.15 850 25.1 15.7 60.3 57 7.3 45.2
01:25 1021 30.15 850 25.1 15.3 59.5 60 7.8 46
01:30 1021 30.15 850 25.1 15 59 59 7.2 45
01:35 1021 30.15 850 25.1 14.9 58.8 60 7.2 45
01:40 1021 30.15 850 25.1 14.6 58.3 63 7.6 45.7
01:45 1021 30.15 850 25.1 14.1 57.3 65 7.5 45.6
01:50 1021 30.15 850 25.1 14.2 57.5 61 6.9 44.4
01:55 1021 30.15 850 25.1 15.1 59.1 59 7.2 45
02:00 1021 30.15 850 25.1 14.9 58.8 62 7.7 45.9
02:05 1021 30.15 850 25.1 14.6 58.3 64 7.9 46.2
02:10 1021 30.15 850 25.1 14.7 58.5 64 8 46.4
02:15 1021 30.15 850 25.1 15 59 62 8 46.3
02:20 1021 30.15 850 25.1 15 59.1 62 7.9 46.2
02:25 1021 30.15 851 25.13 15.2 59.3 62 8 46.4
02:30 1021 30.15 851 25.13 15.2 59.4 62 8.1 46.7
02:35 1021 30.15 851 25.13 15.3 59.5 62 8 46.5
02:40 1021 30.15 851 25.13 15.1 59.2 62 7.9 46.3
02:45 1021 30.15 851 25.13 15.1 59.2 62 7.9 46.3
02:50 1021 30.15 851 25.13 15 59.1 62 7.9 46.2
02:55 1021 30.15 851 25.13 15 59 62 7.8 46.1
03:00 1021 30.15 851 25.13 15 59 61 7.7 45.8
03:05 1021 30.15 851 25.13 15.1 59.3 59 7.3 45.1
03:10 1021 30.15 851 25.13 15.2 59.4 58 7.2 44.9
03:15 1021 30.15 851 25.13 15.1 59.2 60 7.5 45.5
03:20 1021 30.15 851 25.13 14.9 58.9 59 7 44.7
03:25 1021 30.15 851 25.13 15.3 59.6 59 7.4 45.4
03:30 1021 30.15 851 25.13 14.8 58.7 61 7.3 45.2
03:35 1021 30.15 851 25.13 14.7 58.5 60 7.1 44.7
03:40 1021 30.15 851 25.13 15.1 59.1 58 7 44.6
03:45 1022 30.18 851 25.13 15.2 59.4 59 7.2 45
03:50 1021 30.15 851 25.13 15.2 59.3 61 7.7 45.9
03:55 1022 30.18 851 25.13 14.3 57.7 63 7.3 45.2
04:00 1022 30.18 851 25.13 14.9 58.7 59 7.1 44.8
04:05 1022 30.18 851 25.13 15.2 59.3 59 7.2 45
04:10 1022 30.18 851 25.13 15 59 58 6.8 44.3
04:15 1021 30.15 851 25.13 15 59.1 58 6.9 44.5
04:20 1021 30.15 851 25.13 15 58.9 60 7.2 45
04:25 1021 30.15 851 25.13 14.8 58.6 59 6.9 44.4
04:30 1021 30.15 851 25.13 14.7 58.5 60 7 44.6
04:35 1021 30.15 851 25.13 14.5 58.1 65 8 46.5
04:40 1021 30.15 851 25.13 14 57.2 67 8 46.4
04:45 1021 30.15 851 25.13 13.8 56.9 68 8.1 46.6
04:50 1021 30.15 851 25.13 13.7 56.6 68 7.9 46.2
04:55 1021 30.15 851 25.13 13.8 56.8 66 7.6 45.7
05:00 1021 30.15 851 25.13 14 57.2 65 7.7 45.8
05:05 1021 30.15 851 25.13 13.7 56.7 68 7.9 46.2
05:10 1021 30.15 851 25.13 13.8 56.8 67 7.7 45.9
05:15 1021 30.15 851 25.13 14.1 57.4 65 7.8 46.1
05:20 1021 30.15 851 25.13 13.8 56.8 68 7.9 46.3
05:25 1022 30.18 851 25.13 13.7 56.6 67 7.7 45.9
05:30 1022 30.18 851 25.13 13.6 56.6 67 7.7 45.8
05:35 1022 30.18 851 25.13 13.5 56.3 68 7.7 45.9
05:40 1022 30.18 851 25.13 13.2 55.8 69 7.8 46
05:45 1022 30.18 851 25.13 12.9 55.2 71 7.8 46
05:50 1022 30.18 851 25.13 12.9 55.2 71 7.8 46.1
05:55 1022 30.18 851 25.13 13 55.3 71 7.9 46.2
06:00 1022 30.18 851 25.13 13.1 55.7 70 7.8 46
06:05 1022 30.18 851 25.13 13.4 56.1 69 7.9 46.3
06:10 1022 30.18 851 25.13 13.5 56.4 69 8 46.4
06:15 1022 30.18 851 25.13 13.7 56.7 68 8.1 46.6
06:20 1022 30.18 851 25.13 14.2 57.6 67 8.2 46.7
06:25 1022 30.18 851 25.13 14.7 58.4 65 8.2 46.8
06:30 1022 30.18 851 25.13 14.7 58.5 66 8.5 47.3
06:35 1022 30.18 851 25.13 14.5 58.1 67 8.6 47.4
06:40 1022 30.18 851 25.13 14.5 58.1 66 8.3 47
06:45 1022 30.18 851 25.13 14.7 58.4 66 8.4 47.2
06:50 1022 30.18 851 25.13 14.9 58.8 65 8.5 47.2
06:55 1022 30.18 851 25.13 15.3 59.5 64 8.6 47.4
07:00 1022 30.18 851 25.13 15.6 60 64 8.8 47.8
07:05 1022 30.18 851 25.13 15.9 60.6 62 8.6 47.5
07:10 1022 30.18 851 25.13 16.2 61.1 61 8.7 47.6
07:15 1022 30.18 851 25.13 16.5 61.7 60 8.9 48
07:20 1022 30.18 851 25.13 16.7 62.1 59 8.8 47.9
07:25 1022 30.18 851 25.13 16.9 62.4 58 8.7 47.7
07:30 1022 30.18 852 25.16 17.1 62.8 59 9.1 48.4
07:35 1022 30.18 852 25.16 17 62.6 63 9.9 49.9
07:40 1022 30.18 852 25.16 17 62.7 60 9.2 48.6
07:45 1022 30.18 852 25.16 17.1 62.8 60 9.4 48.9
07:50 1022 30.18 852 25.16 17.4 63.2 58 9 48.3
07:55 1022 30.18 852 25.16 17.6 63.7 58 9.3 48.8
08:00 1022 30.18 852 25.16 18.1 64.7 56 9.4 49
08:05 1022 30.18 852 25.16 18.7 65.7 56 9.9 49.9
08:10 1023 30.21 852 25.16 19.1 66.3 55 9.9 49.8
08:15 1023 30.21 852 25.16 19.6 67.2 51 9.4 48.8
08:20 1023 30.21 852 25.16 19.5 67.1 53 9.7 49.4
08:25 1023 30.21 852 25.16 19.6 67.3 50 9.1 48.4
08:30 1023 30.21 852 25.16 20.4 68.8 49 9.5 49.1
08:35 1023 30.21 852 25.16 20.7 69.2 48 9.4 48.9
08:40 1023 30.21 852 25.16 21 69.8 47 9.5 49.1
08:45 1023 30.21 852 25.16 21.2 70.1 47 9.6 49.3
08:50 1023 30.21 852 25.16 21.4 70.4 46 9.5 49.1
08:55 1023 30.21 852 25.16 21.4 70.5 45 9.2 48.6
09:00 1023 30.21 852 25.16 21.6 70.8 44 8.8 47.9
09:05 1023 30.21 852 25.16 21.8 71.2 42 8.6 47.4
09:10 1023 30.21 852 25.16 21.9 71.3 43 8.9 48
09:15 1023 30.21 852 25.16 22.2 72 41 8.5 47.4
09:20 1023 30.21 852 25.16 22.6 72.8 41 8.8 47.8
09:25 1023 30.21 852 25.16 23.1 73.6 39 8.5 47.3
09:30 1023 30.21 852 25.16 22.9 73.2 40 8.6 47.5
09:35 1023 30.21 852 25.16 23.2 73.7 38 8.4 47.1
09:40 1023 30.21 852 25.16 23.7 74.6 39 9.1 48.3
09:45 1023 30.21 852 25.16 23.2 73.8 42 9.7 49.5
09:50 1023 30.21 852 25.16 23 73.5 40 9 48.2
09:55 1023 30.21 852 25.16 22.7 72.8 41 9.1 48.4
10:00 1023 30.21 852 25.16 23.1 73.5 40 9.1 48.3
10:05 1023 30.21 852 25.16 23.5 74.3 38 8.7 47.7
10:10 1023 30.21 852 25.16 24.1 75.4 39 9.6 49.3
10:15 1023 30.21 852 25.16 23.5 74.3 38 8.6 47.5
10:20 1023 30.21 852 25.16 23.3 74 39 8.7 47.6
10:25 1023 30.21 852 25.16 23.7 74.7 38 8.8 47.9
10:30 1023 30.21 852 25.16 23.9 74.9 39 9.1 48.4
10:35 1023 30.21 852 25.16 24.8 76.6 35 8.4 47.2
10:40 1023 30.21 852 25.16 25 76.9 35 8.7 47.6
10:45 1023 30.21 852 25.16 24.8 76.6 34 8.3 46.9
10:50 1023 30.21 852 25.16 24.7 76.4 36 8.8 47.9
10:55 1023 30.21 852 25.16 24.6 76.3 37 9.2 48.6
11:00 1023 30.21 852 25.16 24.6 76.3 37 9.2 48.5
11:05 1023 30.21 852 25.16 25 77 37 9.4 49
11:10 1023 30.21 852 25.16 25 76.9 37 9.5 49.1
11:15 1023 30.21 852 25.16 25 77.1 37 9.6 49.2
11:20 1023 30.21 852 25.16 25.3 77.5 36 9.6 49.2
11:25 1023 30.21 852 25.16 24.9 76.9 36 8.9 48.1
11:30 1023 30.21 852 25.16 25.5 77.8 35 9.1 48.4
11:35 1022 30.18 852 25.16 25.7 78.2 36 9.7 49.5
11:40 1022 30.18 852 25.16 25.7 78.2 34 9 48.2
11:45 1022 30.18 852 25.16 25.9 78.6 35 9.3 48.7
11:50 1022 30.18 851 25.13 26.3 79.3 33 9.1 48.4
11:55 1022 30.18 851 25.13 26.3 79.4 33 8.9 48
12:00 1022 30.18 851 25.13 26.4 79.4 31 8.3 46.9
12:05 1022 30.18 851 25.13 26.8 80.3 30 8.3 46.9
12:10 1022 30.18 851 25.13 26.8 80.3 31 8.6 47.4
12:15 1022 30.18 851 25.13 26.8 80.3 30 8 46.4
12:20 1022 30.18 851 25.13 27 80.6 31 8.7 47.6
12:25 1022 30.18 851 25.13 27.2 80.9 30 8.3 47
12:30 1022 30.18 851 25.13 27 80.6 30 8.4 47.2
12:35 1022 30.18 851 25.13 27 80.7 30 8.5 47.3
12:40 1022 30.18 851 25.13 27.2 80.9 28 7.5 45.5
12:45 1022 30.18 851 25.13 26.8 80.2 29 7.7 45.9
12:50 1022 30.18 851 25.13 26.6 79.9 30 8 46.4
12:55 1022 30.18 851 25.13 27.1 80.8 29 7.7 45.9
13:00 1022 30.18 851 25.13 27.2 80.9 29 7.9 46.3
13:05 1022 30.18 851 25.13 27 80.5 30 8 46.3
13:10 1022 30.18 851 25.13 27.4 81.3 28 7.8 46
13:15 1022 30.18 851 25.13 27.3 81.2 29 8 46.4
13:20 1022 30.18 851 25.13 27.3 81.2 28 7.7 45.8
13:25 1022 30.18 851 25.13 27.5 81.4 28 7.8 46
13:30 1022 30.18 851 25.13 27.5 81.5 28 7.6 45.6
13:35 1022 30.18 851 25.13 27.8 82.1 28 8 46.4
13:40 1021 30.15 851 25.13 27.9 82.3 26 7.1 44.8
13:45 1021 30.15 851 25.13 28.2 82.7 25 6.8 44.2
13:50 1021 30.15 850 25.1 28.5 83.2 25 7.1 44.8
13:55 1021 30.15 850 25.1 28.8 83.9 25 7 44.6
14:00 1021 30.15 850 25.1 28.6 83.5 25 7.1 44.7
14:05 1021 30.15 850 25.1 28.6 83.5 25 7.2 45
14:10 1021 30.15 850 25.1 28.8 83.8 25 7 44.6
14:15 1021 30.15 850 25.1 28.5 83.3 24 6.6 43.9
14:20 1021 30.15 850 25.1 28.6 83.5 24 6.3 43.4
14:25 1021 30.15 850 25.1 27.8 82 26 6.7 44
14:30 1021 30.15 850 25.1 27.8 82.1 24 5.8 42.4
14:35 1021 30.15 850 25.1 28.2 82.7 24 6.1 43
14:40 1021 30.15 850 25.1 28.1 82.6 25 6.4 43.5
14:45 1021 30.15 850 25.1 28.2 82.8 25 6.4 43.5
14:50 1021 30.15 850 25.1 28.3 83 25 6.8 44.2
14:55 1021 30.15 850 25.1 28.5 83.2 26 7.2 45
15:00 1021 30.15 850 25.1 28.7 83.6 26 7.4 45.3
15:05 1021 30.15 850 25.1 28.7 83.6 26 7.4 45.4
15:10 1021 30.15 850 25.1 28.8 83.8 25 7.3 45.1
15:15 1021 30.15 850 25.1 28.7 83.7 26 7.6 45.6
15:20 1021 30.15 850 25.1 28.8 83.8 26 7.8 46
15:25 1020 30.12 850 25.1 28.8 83.9 25 7 44.6
15:30 1020 30.12 850 25.1 29 84.3 25 7.6 45.7
15:35 1020 30.12 850 25.1 28.7 83.6 26 7.5 45.4
15:40 1020 30.12 850 25.1 28.3 83 25 6.9 44.3
15:45 1020 30.12 850 25.1 27.6 81.7 27 7.3 45.1
15:50 1020 30.12 849 25.07 27.8 82 26 6.9 44.4
15:55 1020 30.12 849 25.07 28.4 83.2 26 7.5 45.6
16:00 1020 30.12 849 25.07 28.5 83.4 26 7.2 45
16:05 1020 30.12 849 25.07 28.4 83.2 26 7.3 45.2
16:10 1020 30.12 849 25.07 28.2 82.7 27 7.8 46
16:15 1020 30.12 849 25.07 28.1 82.7 27 7.9 46.2
16:20 1020 30.12 849 25.07 28.1 82.6 28 8.1 46.6
16:25 1020 30.12 849 25.07 28.1 82.5 27 7.8 46.1
16:30 1020 30.12 849 25.07 28.1 82.6 27 7.5 45.5
16:35 1020 30.12 849 25.07 28 82.3 26 7.1 44.8
16:40 1020 30.12 849 25.07 27.9 82.2 27 7.7 45.9
16:45 1020 30.12 849 25.07 27.9 82.2 27 7.7 45.8
16:50 1020 30.12 849 25.07 27.8 82 29 8.5 47.3
16:55 1020 30.12 849 25.07 27.6 81.7 29 8.1 46.6
17:00 1020 30.12 849 25.07 27.6 81.7 28 8 46.4
17:05 1020 30.12 849 25.07 27.6 81.7 28 7.7 45.9
17:10 1020 30.12 849 25.07 27.5 81.5 29 8 46.5
17:15 1020 30.12 849 25.07 27.4 81.3 28 7.7 45.8
17:20 1020 30.12 849 25.07 27.5 81.4 29 8 46.4
17:25 1020 30.12 849 25.07 27.5 81.5 31 8.9 48.1
17:30 1020 30.12 849 25.07 27.2 81 29 7.8 46.1
17:35 1020 30.12 849 25.07 26.8 80.2 30 7.8 46.1
17:40 1020 30.12 849 25.07 26.7 80.1 30 8.2 46.8
17:45 1020 30.12 849 25.07 26.7 80 30 8 46.4
17:50 1020 30.12 849 25.07 26.5 79.8 31 8.1 46.5
17:55 1020 30.12 849 25.07 26.5 79.7 31 8.2 46.7
18:00 1020 30.12 849 25.07 26.4 79.5 31 8.2 46.7
18:05 1020 30.12 849 25.07 26.3 79.3 31 8.3 46.9
18:10 1020 30.12 849 25.07 26.1 79 32 8.5 47.2
18:15 1020 30.12 849 25.07 26 78.8 33 8.6 47.5
18:20 1020 30.12 849 25.07 25.9 78.6 33 8.5 47.3
18:25 1020 30.12 849 25.07 25.8 78.4 34 8.8 47.9
18:30 1020 30.12 849 25.07 25.5 77.9 35 9 48.2
18:35 1020 30.12 850 25.1 25.3 77.5 34 8.7 47.7
18:40 1020 30.12 850 25.1 25.2 77.4 33 8.2 46.8
18:45 1021 30.15 850 25.1 25.1 77.1 34 8.5 47.3
18:50 1021 30.15 850 25.1 24.9 76.8 33 7.8 46
18:55 1021 30.15 850 25.1 24.8 76.7 33 7.7 45.8
19:00 1021 30.15 850 25.1 24.5 76 42 11 51.9
19:05 1021 30.15 851 25.13 22.4 72.3 57 13.5 56.3
19:10 1022 30.18 851 25.13 20.3 68.6 63 13.3 55.9
19:15 1022 30.18 851 25.13 19.8 67.7 65 13 55.5
19:20 1022 30.18 852 25.16 19.6 67.3 65 12.9 55.3
19:25 1023 30.21 852 25.16 19.6 67.3 66 13.1 55.5
19:30 1023 30.21 852 25.16 19.6 67.3 66 13.1 55.7
19:35 1023 30.21 852 25.16 19.6 67.3 61 12 53.6
19:40 1023 30.21 852 25.16 19.7 67.4 66 13.3 56
19:45 1024 30.24 853 25.19 19.2 66.6 67 13.1 55.6
19:50 1024 30.24 853 25.19 19 66.3 68 13.2 55.7
19:55 1024 30.24 853 25.19 18.9 66.1 68 12.9 55.2
20:00 1024 30.24 854 25.22 18.9 66 68 13 55.5
20:05 1024 30.24 854 25.22 19 66.1 71 13.7 56.6
20:10 1025 30.27 854 25.22 19 66.3 68 13.1 55.6
20:15 1025 30.27 854 25.22 18.9 65.9 71 13.5 56.3
20:20 1025 30.27 854 25.22 18.6 65.5 71 13.3 56
20:25 1025 30.27 854 25.22 18.5 65.2 71 13.2 55.8
20:30 1024 30.24 854 25.22 18.4 65.1 72 13.3 55.9
20:35 1024 30.24 854 25.22 18.4 65 73 13.6 56.5
20:40 1024 30.24 854 25.22 18.3 65 76 14.1 57.4
20:45 1024 30.24 854 25.22 18.2 64.8 74 13.6 56.4
20:50 1024 30.24 854 25.22 18.1 64.6 76 13.8 56.9
20:55 1024 30.24 854 25.22 18 64.3 77 13.9 57
21:00 1024 30.24 854 25.22 17.9 64.2 77 13.8 56.8
21:05 1025 30.27 854 25.22 17.8 64 77 13.8 56.8
21:10 1025 30.27 854 25.22 17.6 63.8 78 13.7 56.7
21:15 1025 30.27 854 25.22 17.3 63.1 80 13.8 56.9
21:20 1025 30.27 854 25.22 17 62.6 79 13.3 56
21:25 1025 30.27 854 25.22 17 62.6 79 13.4 56.2
21:30 1025 30.27 854 25.22 17 62.7 78 13.3 55.9
21:35 1025 30.27 854 25.22 17 62.6 79 13.3 56
21:40 1025 30.27 854 25.22 17 62.7 78 13.2 55.8
21:45 1025 30.27 854 25.22 17.2 62.9 77 13.2 55.8
21:50 1025 30.27 854 25.22 17.1 62.8 79 13.5 56.3
21:55 1025 30.27 854 25.22 16.9 62.5 80 13.4 56.1
22:00 1025 30.27 854 25.22 16.9 62.5 79 13.3 55.9
22:05 1025 30.27 854 25.22 17 62.5 80 13.5 56.3
22:10 1025 30.27 854 25.22 16.8 62.2 80 13.3 55.9
22:15 1025 30.27 854 25.22 16.8 62.3 81 13.5 56.3
22:20 1025 30.27 854 25.22 16.9 62.4 78 13.2 55.7
22:25 1025 30.27 854 25.22 17.1 62.8 78 13.3 55.9
22:30 1025 30.27 854 25.22 17.3 63.2 77 13.3 56
22:35 1025 30.27 854 25.22 17.3 63.1 77 13.3 56
22:40 1025 30.27 854 25.22 17.1 62.8 78 13.4 56.1
22:45 1025 30.27 854 25.22 17 62.6 81 13.7 56.7
22:50 1025 30.27 854 25.22 16.9 62.4 81 13.7 56.6
22:55 1025 30.27 854 25.22 16.8 62.2 82 13.7 56.7
23:00 1025 30.27 854 25.22 16.8 62.3 80 13.4 56.1
23:05 1025 30.27 854 25.22 17 62.5 80 13.6 56.4
23:10 1025 30.27 854 25.22 17 62.6 83 14.1 57.4
23:15 1025 30.27 854 25.22 16.8 62.3 84 14.1 57.3
23:20 1025 30.27 854 25.22 16.5 61.7 86 14.2 57.6
23:25 1025 30.27 854 25.22 16.4 61.5 85 14 57.1
23:30 1025 30.27 854 25.22 16.5 61.6 85 14 57.2
23:35 1025 30.27 854 25.22 16.5 61.8 86 14.2 57.6
23:40 1025 30.27 854 25.22 16.5 61.6 86 14.1 57.4
23:45 1025 30.27 854 25.22 16.4 61.6 88 14.5 58.1
23:50 1025 30.27 854 25.22 16.3 61.4 85 13.9 57
23:55 1025 30.27 854 25.22 16.3 61.3 85 13.8 56.8
24:00 1025 30.27 854 25.22 16.1 61 87 13.9 57